sensor_id;sensor_type;location;lat;lon;timestamp;pressure;altitude;pressure_sealevel;temperature;humidity
34205;BME280;20471;49.680;20.074;2023-05-11T00:00:44;97370.84;;;5.32;66.16
34205;BME280;20471;49.680;20.074;2023-05-11T00:03:14;97369.10;;;5.28;66.32
34205;BME280;20471;49.680;20.074;2023-05-11T00:05:46;97367.80;;;5.27;66.34
34205;BME280;20471;49.680;20.074;2023-05-11T00:08:14;97373.13;;;5.26;66.45
34205;BME280;20471;49.680;20.074;2023-05-11T00:10:46;97373.44;;;5.20;66.41
34205;BME280;20471;49.680;20.074;2023-05-11T00:13:15;97375.34;;;5.18;66.51
34205;BME280;20471;49.680;20.074;2023-05-11T00:15:43;97375.06;;;5.19;66.71
34205;BME280;20471;49.680;20.074;2023-05-11T00:18:11;97373.33;;;5.21;66.87
34205;BME280;20471;49.680;20.074;2023-05-11T00:20:39;97368.45;;;5.25;66.92
34205;BME280;20471;49.680;20.074;2023-05-11T00:23:07;97367.71;;;5.25;66.88
34205;BME280;20471;49.680;20.074;2023-05-11T00:25:35;97369.02;;;5.23;66.79
34205;BME280;20471;49.680;20.074;2023-05-11T00:28:04;97367.36;;;5.23;66.92
34205;BME280;20471;49.680;20.074;2023-05-11T00:30:33;97367.22;;;5.23;66.73
34205;BME280;20471;49.680;20.074;2023-05-11T00:33:01;97368.17;;;5.21;66.67
34205;BME280;20471;49.680;20.074;2023-05-11T00:35:29;97367.73;;;5.19;66.81
34205;BME280;20471;49.680;20.074;2023-05-11T00:37:58;97365.99;;;5.14;66.96
34205;BME280;20471;49.680;20.074;2023-05-11T00:40:26;97366.06;;;5.09;67.03
34205;BME280;20471;49.680;20.074;2023-05-11T00:42:54;97361.59;;;5.07;66.94
34205;BME280;20471;49.680;20.074;2023-05-11T00:45:22;97363.25;;;5.05;67.00
34205;BME280;20471;49.680;20.074;2023-05-11T00:47:51;97359.36;;;5.02;66.92
34205;BME280;20471;49.680;20.074;2023-05-11T00:50:19;97358.11;;;4.97;66.89
34205;BME280;20471;49.680;20.074;2023-05-11T00:52:47;97357.30;;;4.93;67.01
34205;BME280;20471;49.680;20.074;2023-05-11T00:55:18;97358.20;;;4.91;67.10
34205;BME280;20471;49.680;20.074;2023-05-11T00:57:47;97358.37;;;4.89;67.27
34205;BME280;20471;49.680;20.074;2023-05-11T01:00:15;97360.98;;;4.88;67.35
34205;BME280;20471;49.680;20.074;2023-05-11T01:02:43;97359.22;;;4.86;67.43
34205;BME280;20471;49.680;20.074;2023-05-11T01:05:12;97355.79;;;4.84;67.25
34205;BME280;20471;49.680;20.074;2023-05-11T01:10:31;97358.81;;;4.74;67.28
34205;BME280;20471;49.680;20.074;2023-05-11T01:15:37;97360.85;;;4.64;67.30
34205;BME280;20471;49.680;20.074;2023-05-11T01:20:48;97363.61;;;4.54;67.53
34205;BME280;20471;49.680;20.074;2023-05-11T01:26:32;97361.92;;;4.46;67.75
34205;BME280;20471;49.680;20.074;2023-05-11T01:31:53;97368.40;;;4.44;67.84
34205;BME280;20471;49.680;20.074;2023-05-11T01:34:24;97366.31;;;4.38;67.85
34205;BME280;20471;49.680;20.074;2023-05-11T01:37:05;97364.61;;;4.33;68.01
34205;BME280;20471;49.680;20.074;2023-05-11T01:39:42;97364.15;;;4.31;68.16
34205;BME280;20471;49.680;20.074;2023-05-11T01:42:13;97364.45;;;4.30;68.16
34205;BME280;20471;49.680;20.074;2023-05-11T01:44:44;97365.83;;;4.29;68.15
34205;BME280;20471;49.680;20.074;2023-05-11T01:47:17;97369.13;;;4.26;68.03
34205;BME280;20471;49.680;20.074;2023-05-11T01:49:45;97368.36;;;4.25;68.04
34205;BME280;20471;49.680;20.074;2023-05-11T01:52:15;97372.92;;;4.23;68.09
34205;BME280;20471;49.680;20.074;2023-05-11T01:54:47;97372.05;;;4.19;68.03
34205;BME280;20471;49.680;20.074;2023-05-11T01:57:16;97373.88;;;4.17;68.04
34205;BME280;20471;49.680;20.074;2023-05-11T01:59:44;97375.80;;;4.13;68.02
34205;BME280;20471;49.680;20.074;2023-05-11T02:02:17;97381.85;;;4.10;68.05
34205;BME280;20471;49.680;20.074;2023-05-11T02:04:45;97381.04;;;4.06;68.14
34205;BME280;20471;49.680;20.074;2023-05-11T02:07:15;97381.56;;;4.03;68.15
34205;BME280;20471;49.680;20.074;2023-05-11T02:09:44;97384.71;;;3.98;68.14
34205;BME280;20471;49.680;20.074;2023-05-11T02:12:17;97386.80;;;3.96;68.25
34205;BME280;20471;49.680;20.074;2023-05-11T02:14:46;97386.30;;;3.92;68.23
34205;BME280;20471;49.680;20.074;2023-05-11T02:17:16;97386.23;;;3.89;68.25
34205;BME280;20471;49.680;20.074;2023-05-11T02:19:46;97384.80;;;3.87;68.35
34205;BME280;20471;49.680;20.074;2023-05-11T02:22:15;97384.29;;;3.83;68.34
34205;BME280;20471;49.680;20.074;2023-05-11T02:24:43;97382.35;;;3.81;68.47
34205;BME280;20471;49.680;20.074;2023-05-11T02:27:12;97383.39;;;3.80;68.53
34205;BME280;20471;49.680;20.074;2023-05-11T02:29:40;97386.40;;;3.77;68.59
34205;BME280;20471;49.680;20.074;2023-05-11T02:32:12;97385.27;;;3.75;68.66
34205;BME280;20471;49.680;20.074;2023-05-11T02:34:49;97389.09;;;3.71;68.63
34205;BME280;20471;49.680;20.074;2023-05-11T02:37:22;97390.95;;;3.65;68.54
34205;BME280;20471;49.680;20.074;2023-05-11T02:39:56;97384.85;;;3.61;68.56
34205;BME280;20471;49.680;20.074;2023-05-11T02:42:26;97383.62;;;3.55;68.67
34205;BME280;20471;49.680;20.074;2023-05-11T02:45:15;97394.31;;;3.52;68.77
34205;BME280;20471;49.680;20.074;2023-05-11T02:47:47;97390.65;;;3.51;68.77
34205;BME280;20471;49.680;20.074;2023-05-11T02:50:19;97391.29;;;3.51;68.72
34205;BME280;20471;49.680;20.074;2023-05-11T02:52:52;97388.01;;;3.48;68.74
34205;BME280;20471;49.680;20.074;2023-05-11T02:55:22;97391.37;;;3.45;68.75
34205;BME280;20471;49.680;20.074;2023-05-11T02:57:50;97391.70;;;3.42;68.77
34205;BME280;20471;49.680;20.074;2023-05-11T03:00:19;97396.34;;;3.39;68.89
34205;BME280;20471;49.680;20.074;2023-05-11T03:02:47;97393.48;;;3.36;69.07
34205;BME280;20471;49.680;20.074;2023-05-11T03:05:15;97394.73;;;3.32;69.07
34205;BME280;20471;49.680;20.074;2023-05-11T03:07:43;97396.55;;;3.27;69.12
34205;BME280;20471;49.680;20.074;2023-05-11T03:10:11;97396.73;;;3.25;69.29
34205;BME280;20471;49.680;20.074;2023-05-11T03:12:41;97398.10;;;3.24;69.47
34205;BME280;20471;49.680;20.074;2023-05-11T03:15:10;97399.77;;;3.23;69.46
34205;BME280;20471;49.680;20.074;2023-05-11T03:17:39;97401.54;;;3.22;69.35
34205;BME280;20471;49.680;20.074;2023-05-11T03:20:08;97402.79;;;3.20;69.36
34205;BME280;20471;49.680;20.074;2023-05-11T03:22:38;97399.55;;;3.17;69.45
34205;BME280;20471;49.680;20.074;2023-05-11T03:25:07;97397.80;;;3.13;69.40
34205;BME280;20471;49.680;20.074;2023-05-11T03:27:37;97398.66;;;3.11;69.45
34205;BME280;20471;49.680;20.074;2023-05-11T03:30:10;97401.15;;;3.09;69.40
34205;BME280;20471;49.680;20.074;2023-05-11T03:32:38;97401.94;;;3.05;69.48
34205;BME280;20471;49.680;20.074;2023-05-11T03:35:07;97401.98;;;3.00;69.72
34205;BME280;20471;49.680;20.074;2023-05-11T03:37:36;97405.08;;;2.99;69.83
34205;BME280;20471;49.680;20.074;2023-05-11T03:40:06;97400.91;;;3.00;69.90
34205;BME280;20471;49.680;20.074;2023-05-11T03:42:36;97401.53;;;2.99;70.01
34205;BME280;20471;49.680;20.074;2023-05-11T03:45:06;97401.63;;;2.95;70.01
34205;BME280;20471;49.680;20.074;2023-05-11T03:47:38;97405.44;;;2.93;69.99
34205;BME280;20471;49.680;20.074;2023-05-11T03:50:08;97404.67;;;2.91;70.20
34205;BME280;20471;49.680;20.074;2023-05-11T03:52:38;97403.81;;;2.94;70.34
34205;BME280;20471;49.680;20.074;2023-05-11T03:55:07;97406.67;;;3.01;70.44
34205;BME280;20471;49.680;20.074;2023-05-11T03:57:36;97407.44;;;3.07;70.37
34205;BME280;20471;49.680;20.074;2023-05-11T04:00:04;97405.59;;;3.11;70.42
34205;BME280;20471;49.680;20.074;2023-05-11T04:02:33;97408.20;;;3.13;70.43
34205;BME280;20471;49.680;20.074;2023-05-11T04:05:07;97409.25;;;3.15;70.50
34205;BME280;20471;49.680;20.074;2023-05-11T04:07:37;97407.29;;;3.16;70.60
34205;BME280;20471;49.680;20.074;2023-05-11T04:10:06;97410.42;;;3.20;70.58
34205;BME280;20471;49.680;20.074;2023-05-11T04:12:34;97410.07;;;3.24;70.54
34205;BME280;20471;49.680;20.074;2023-05-11T04:15:02;97411.00;;;3.30;70.66
34205;BME280;20471;49.680;20.074;2023-05-11T04:17:31;97409.14;;;3.37;70.82
34205;BME280;20471;49.680;20.074;2023-05-11T04:19:59;97410.97;;;3.43;70.93
34205;BME280;20471;49.680;20.074;2023-05-11T04:22:27;97408.48;;;3.48;70.88
34205;BME280;20471;49.680;20.074;2023-05-11T04:24:55;97407.34;;;3.54;70.91
34205;BME280;20471;49.680;20.074;2023-05-11T04:27:23;97406.60;;;3.60;71.02
34205;BME280;20471;49.680;20.074;2023-05-11T04:29:51;97403.23;;;3.67;71.09
34205;BME280;20471;49.680;20.074;2023-05-11T04:32:19;97403.13;;;3.72;71.12
34205;BME280;20471;49.680;20.074;2023-05-11T04:34:47;97406.15;;;3.77;71.24
34205;BME280;20471;49.680;20.074;2023-05-11T04:37:15;97404.89;;;3.82;71.18
34205;BME280;20471;49.680;20.074;2023-05-11T04:39:43;97404.70;;;3.88;71.16
34205;BME280;20471;49.680;20.074;2023-05-11T04:42:12;97402.98;;;3.96;71.16
34205;BME280;20471;49.680;20.074;2023-05-11T04:44:40;97402.30;;;4.04;71.14
34205;BME280;20471;49.680;20.074;2023-05-11T04:47:08;97398.20;;;4.10;71.25
34205;BME280;20471;49.680;20.074;2023-05-11T04:49:36;97395.45;;;4.16;71.35
34205;BME280;20471;49.680;20.074;2023-05-11T04:52:05;97395.61;;;4.21;71.35
34205;BME280;20471;49.680;20.074;2023-05-11T04:54:33;97396.69;;;4.27;71.49
34205;BME280;20471;49.680;20.074;2023-05-11T04:57:02;97396.24;;;4.32;71.49
34205;BME280;20471;49.680;20.074;2023-05-11T04:59:30;97397.29;;;4.40;71.45
34205;BME280;20471;49.680;20.074;2023-05-11T05:01:59;97397.51;;;4.49;71.59
34205;BME280;20471;49.680;20.074;2023-05-11T05:04:27;97399.58;;;4.59;71.64
34205;BME280;20471;49.680;20.074;2023-05-11T05:06:55;97401.18;;;4.67;71.74
34205;BME280;20471;49.680;20.074;2023-05-11T05:09:23;97403.78;;;4.76;71.90
34205;BME280;20471;49.680;20.074;2023-05-11T05:11:51;97401.70;;;4.85;71.98
34205;BME280;20471;49.680;20.074;2023-05-11T05:14:19;97399.56;;;4.93;72.00
34205;BME280;20471;49.680;20.074;2023-05-11T05:16:47;97397.88;;;5.03;72.02
34205;BME280;20471;49.680;20.074;2023-05-11T05:19:15;97395.34;;;5.13;72.20
34205;BME280;20471;49.680;20.074;2023-05-11T05:21:43;97394.60;;;5.22;72.20
34205;BME280;20471;49.680;20.074;2023-05-11T05:24:11;97394.69;;;5.32;72.31
34205;BME280;20471;49.680;20.074;2023-05-11T05:26:39;97395.31;;;5.42;72.25
34205;BME280;20471;49.680;20.074;2023-05-11T05:29:07;97391.63;;;5.53;72.27
34205;BME280;20471;49.680;20.074;2023-05-11T05:31:35;97391.77;;;5.63;72.32
34205;BME280;20471;49.680;20.074;2023-05-11T05:34:03;97390.84;;;5.74;72.19
34205;BME280;20471;49.680;20.074;2023-05-11T05:36:32;97393.27;;;5.87;72.01
34205;BME280;20471;49.680;20.074;2023-05-11T05:39:00;97389.02;;;5.98;71.88
34205;BME280;20471;49.680;20.074;2023-05-11T05:41:29;97388.58;;;6.09;71.68
34205;BME280;20471;49.680;20.074;2023-05-11T05:43:57;97386.41;;;6.23;71.52
34205;BME280;20471;49.680;20.074;2023-05-11T05:46:25;97385.05;;;6.37;71.47
34205;BME280;20471;49.680;20.074;2023-05-11T05:48:53;97384.80;;;6.49;71.44
34205;BME280;20471;49.680;20.074;2023-05-11T05:51:22;97386.09;;;6.62;71.52
34205;BME280;20471;49.680;20.074;2023-05-11T05:53:50;97382.11;;;6.77;71.53
34205;BME280;20471;49.680;20.074;2023-05-11T05:56:18;97378.45;;;6.92;71.40
34205;BME280;20471;49.680;20.074;2023-05-11T05:58:47;97378.08;;;7.07;71.14
34205;BME280;20471;49.680;20.074;2023-05-11T06:01:15;97377.73;;;7.22;70.91
34205;BME280;20471;49.680;20.074;2023-05-11T06:03:43;97376.42;;;7.35;70.55
34205;BME280;20471;49.680;20.074;2023-05-11T06:06:11;97376.23;;;7.48;70.19
34205;BME280;20471;49.680;20.074;2023-05-11T06:08:39;97376.98;;;7.59;69.83
34205;BME280;20471;49.680;20.074;2023-05-11T06:11:08;97375.92;;;7.71;69.41
34205;BME280;20471;49.680;20.074;2023-05-11T06:13:37;97372.83;;;7.82;69.09
34205;BME280;20471;49.680;20.074;2023-05-11T06:16:05;97370.21;;;7.97;68.87
34205;BME280;20471;49.680;20.074;2023-05-11T06:18:33;97366.33;;;8.14;68.54
34205;BME280;20471;49.680;20.074;2023-05-11T06:21:01;97365.63;;;8.31;68.30
34205;BME280;20471;49.680;20.074;2023-05-11T06:23:29;97366.08;;;8.44;67.87
34205;BME280;20471;49.680;20.074;2023-05-11T06:25:57;97366.23;;;8.57;67.54
34205;BME280;20471;49.680;20.074;2023-05-11T06:28:25;97368.11;;;8.70;67.44
34205;BME280;20471;49.680;20.074;2023-05-11T06:30:55;97365.45;;;8.86;67.24
34205;BME280;20471;49.680;20.074;2023-05-11T06:33:25;97364.51;;;9.01;66.91
34205;BME280;20471;49.680;20.074;2023-05-11T06:35:53;97360.61;;;9.21;66.84
34205;BME280;20471;49.680;20.074;2023-05-11T06:38:21;97364.64;;;9.42;66.55
34205;BME280;20471;49.680;20.074;2023-05-11T06:40:52;97364.40;;;9.55;66.07
34205;BME280;20471;49.680;20.074;2023-05-11T06:43:20;97361.10;;;9.69;65.90
34205;BME280;20471;49.680;20.074;2023-05-11T06:45:49;97356.46;;;9.88;65.96
34205;BME280;20471;49.680;20.074;2023-05-11T06:48:17;97355.52;;;10.05;65.67
34205;BME280;20471;49.680;20.074;2023-05-11T06:50:45;97353.00;;;10.21;65.35
34205;BME280;20471;49.680;20.074;2023-05-11T06:53:13;97348.95;;;10.38;64.63
34205;BME280;20471;49.680;20.074;2023-05-11T06:55:43;97350.73;;;10.54;64.00
34205;BME280;20471;49.680;20.074;2023-05-11T06:58:11;97349.58;;;10.67;63.55
34205;BME280;20471;49.680;20.074;2023-05-11T07:00:39;97342.63;;;10.81;63.07
34205;BME280;20471;49.680;20.074;2023-05-11T07:03:07;97339.06;;;10.96;62.64
34205;BME280;20471;49.680;20.074;2023-05-11T07:05:35;97338.59;;;11.12;62.44
34205;BME280;20471;49.680;20.074;2023-05-11T07:08:05;97337.98;;;11.27;61.97
34205;BME280;20471;49.680;20.074;2023-05-11T07:10:33;97336.14;;;11.42;61.66
34205;BME280;20471;49.680;20.074;2023-05-11T07:13:01;97335.44;;;11.58;61.49
34205;BME280;20471;49.680;20.074;2023-05-11T07:15:29;97329.29;;;11.74;61.43
34205;BME280;20471;49.680;20.074;2023-05-11T07:17:57;97325.80;;;11.91;60.64
34205;BME280;20471;49.680;20.074;2023-05-11T07:20:26;97323.85;;;12.08;59.99
34205;BME280;20471;49.680;20.074;2023-05-11T07:22:56;97319.16;;;12.24;59.37
34205;BME280;20471;49.680;20.074;2023-05-11T07:25:24;97317.40;;;12.41;58.79
34205;BME280;20471;49.680;20.074;2023-05-11T07:27:52;97313.23;;;12.58;58.08
34205;BME280;20471;49.680;20.074;2023-05-11T07:30:21;97311.13;;;12.78;57.63
34205;BME280;20471;49.680;20.074;2023-05-11T07:32:49;97308.43;;;13.10;57.40
34205;BME280;20471;49.680;20.074;2023-05-11T07:35:17;97308.52;;;13.56;56.47
34205;BME280;20471;49.680;20.074;2023-05-11T07:37:45;97303.41;;;14.16;55.29
34205;BME280;20471;49.680;20.074;2023-05-11T07:40:14;97306.04;;;14.79;54.34
34205;BME280;20471;49.680;20.074;2023-05-11T07:42:41;97307.62;;;15.38;52.50
34205;BME280;20471;49.680;20.074;2023-05-11T07:45:10;97307.54;;;15.95;51.59
34205;BME280;20471;49.680;20.074;2023-05-11T07:47:38;97304.48;;;16.49;50.39
34205;BME280;20471;49.680;20.074;2023-05-11T07:50:07;97306.15;;;17.04;49.95
34205;BME280;20471;49.680;20.074;2023-05-11T07:52:35;97302.54;;;17.52;48.66
34205;BME280;20471;49.680;20.074;2023-05-11T07:55:04;97302.73;;;17.97;47.76
34205;BME280;20471;49.680;20.074;2023-05-11T07:57:32;97302.17;;;18.46;47.30
34205;BME280;20471;49.680;20.074;2023-05-11T08:00:00;97301.78;;;18.91;45.73
34205;BME280;20471;49.680;20.074;2023-05-11T08:02:28;97305.71;;;19.34;45.99
34205;BME280;20471;49.680;20.074;2023-05-11T08:04:57;97302.09;;;19.81;44.89
34205;BME280;20471;49.680;20.074;2023-05-11T08:07:25;97301.92;;;20.16;43.62
34205;BME280;20471;49.680;20.074;2023-05-11T08:09:53;97301.96;;;20.54;42.99
34205;BME280;20471;49.680;20.074;2023-05-11T08:12:21;97301.88;;;20.83;42.03
34205;BME280;20471;49.680;20.074;2023-05-11T08:14:49;97300.96;;;21.12;40.94
34205;BME280;20471;49.680;20.074;2023-05-11T08:17:17;97297.83;;;21.47;40.26
34205;BME280;20471;49.680;20.074;2023-05-11T08:19:45;97293.14;;;21.82;39.51
34205;BME280;20471;49.680;20.074;2023-05-11T08:22:14;97291.17;;;22.14;38.40
34205;BME280;20471;49.680;20.074;2023-05-11T08:24:42;97288.24;;;22.44;38.00
34205;BME280;20471;49.680;20.074;2023-05-11T08:27:10;97289.30;;;22.71;37.16
34205;BME280;20471;49.680;20.074;2023-05-11T08:29:38;97287.44;;;23.04;36.24
34205;BME280;20471;49.680;20.074;2023-05-11T08:32:06;97282.98;;;23.35;36.00
34205;BME280;20471;49.680;20.074;2023-05-11T08:34:34;97278.96;;;23.63;35.00
34205;BME280;20471;49.680;20.074;2023-05-11T08:37:02;97277.51;;;24.03;35.10
34205;BME280;20471;49.680;20.074;2023-05-11T08:39:34;97273.67;;;24.44;34.61
34205;BME280;20471;49.680;20.074;2023-05-11T08:42:03;97269.27;;;24.84;34.49
34205;BME280;20471;49.680;20.074;2023-05-11T08:44:34;97272.11;;;25.27;33.94
34205;BME280;20471;49.680;20.074;2023-05-11T08:47:04;97274.83;;;25.62;33.67
34205;BME280;20471;49.680;20.074;2023-05-11T08:49:33;97273.64;;;25.88;32.52
34205;BME280;20471;49.680;20.074;2023-05-11T08:52:03;97270.40;;;26.04;32.12
34205;BME280;20471;49.680;20.074;2023-05-11T08:54:32;97273.23;;;25.82;31.54
34205;BME280;20471;49.680;20.074;2023-05-11T08:57:01;97273.78;;;25.86;31.58
34205;BME280;20471;49.680;20.074;2023-05-11T08:59:31;97270.43;;;26.10;31.02
34205;BME280;20471;49.680;20.074;2023-05-11T09:02:01;97273.20;;;26.17;30.84
34205;BME280;20471;49.680;20.074;2023-05-11T09:04:32;97273.53;;;26.29;30.07
34205;BME280;20471;49.680;20.074;2023-05-11T09:07:01;97275.29;;;26.22;29.27
34205;BME280;20471;49.680;20.074;2023-05-11T09:09:30;97274.05;;;26.28;29.29
34205;BME280;20471;49.680;20.074;2023-05-11T09:11:58;97263.66;;;26.36;28.68
34205;BME280;20471;49.680;20.074;2023-05-11T09:14:27;97260.85;;;26.52;28.96
34205;BME280;20471;49.680;20.074;2023-05-11T09:16:55;97265.16;;;26.78;28.84
34205;BME280;20471;49.680;20.074;2023-05-11T09:19:24;97260.73;;;27.00;28.72
34205;BME280;20471;49.680;20.074;2023-05-11T09:21:52;97265.07;;;27.14;28.83
34205;BME280;20471;49.680;20.074;2023-05-11T09:24:20;97267.13;;;27.27;28.52
34205;BME280;20471;49.680;20.074;2023-05-11T09:26:51;97264.27;;;27.34;28.02
34205;BME280;20471;49.680;20.074;2023-05-11T09:29:32;97265.45;;;27.42;27.80
34205;BME280;20471;49.680;20.074;2023-05-11T09:32:00;97268.56;;;27.42;26.85
34205;BME280;20471;49.680;20.074;2023-05-11T09:34:28;97268.27;;;27.20;26.92
34205;BME280;20471;49.680;20.074;2023-05-11T09:36:57;97265.13;;;27.12;26.95
34205;BME280;20471;49.680;20.074;2023-05-11T09:39:35;97261.35;;;27.11;27.00
34205;BME280;20471;49.680;20.074;2023-05-11T09:42:16;97260.75;;;27.18;27.07
34205;BME280;20471;49.680;20.074;2023-05-11T09:44:45;97259.93;;;27.17;27.05
34205;BME280;20471;49.680;20.074;2023-05-11T09:47:16;97259.64;;;26.97;26.72
34205;BME280;20471;49.680;20.074;2023-05-11T09:49:45;97259.77;;;26.97;26.42
34205;BME280;20471;49.680;20.074;2023-05-11T09:52:17;97257.66;;;26.94;26.30
34205;BME280;20471;49.680;20.074;2023-05-11T09:54:49;97252.98;;;26.91;26.73
34205;BME280;20471;49.680;20.074;2023-05-11T09:57:36;97241.25;;;27.03;27.20
34205;BME280;20471;49.680;20.074;2023-05-11T10:00:12;97249.70;;;27.17;27.13
34205;BME280;20471;49.680;20.074;2023-05-11T10:02:41;97246.81;;;27.11;26.49
34205;BME280;20471;49.680;20.074;2023-05-11T10:05:10;97236.94;;;26.96;25.80
34205;BME280;20471;49.680;20.074;2023-05-11T10:07:39;97243.81;;;26.94;25.87
34205;BME280;20471;49.680;20.074;2023-05-11T10:10:08;97241.41;;;27.01;26.06
34205;BME280;20471;49.680;20.074;2023-05-11T10:12:37;97230.60;;;27.09;25.56
34205;BME280;20471;49.680;20.074;2023-05-11T10:15:07;97226.77;;;27.01;24.50
34205;BME280;20471;49.680;20.074;2023-05-11T10:17:36;97224.16;;;26.92;24.84
34205;BME280;20471;49.680;20.074;2023-05-11T10:20:05;97229.13;;;26.82;25.18
34205;BME280;20471;49.680;20.074;2023-05-11T10:22:34;97227.42;;;26.81;25.56
34205;BME280;20471;49.680;20.074;2023-05-11T10:25:02;97225.84;;;26.96;25.65
34205;BME280;20471;49.680;20.074;2023-05-11T10:27:32;97221.52;;;26.94;25.14
34205;BME280;20471;49.680;20.074;2023-05-11T10:30:00;97218.49;;;26.93;24.90
34205;BME280;20471;49.680;20.074;2023-05-11T10:32:30;97217.55;;;26.72;24.53
34205;BME280;20471;49.680;20.074;2023-05-11T10:34:58;97217.24;;;26.66;24.62
34205;BME280;20471;49.680;20.074;2023-05-11T10:37:27;97215.73;;;26.74;24.73
34205;BME280;20471;49.680;20.074;2023-05-11T10:39:56;97213.29;;;26.80;24.85
34205;BME280;20471;49.680;20.074;2023-05-11T10:48:10;97205.52;;;27.27;25.07
34205;BME280;20471;49.680;20.074;2023-05-11T10:53:45;97202.92;;;27.15;24.24
34205;BME280;20471;49.680;20.074;2023-05-11T10:59:42;97196.89;;;27.15;24.65
34205;BME280;20471;49.680;20.074;2023-05-11T11:02:12;97195.27;;;27.05;24.70
34205;BME280;20471;49.680;20.074;2023-05-11T11:04:48;97191.34;;;27.12;24.35
34205;BME280;20471;49.680;20.074;2023-05-11T11:07:17;97190.33;;;27.11;24.21
34205;BME280;20471;49.680;20.074;2023-05-11T11:09:59;97191.71;;;27.08;24.40
34205;BME280;20471;49.680;20.074;2023-05-11T11:12:31;97182.69;;;27.05;24.21
34205;BME280;20471;49.680;20.074;2023-05-11T11:15:05;97186.84;;;26.97;24.01
34205;BME280;20471;49.680;20.074;2023-05-11T11:17:34;97191.44;;;26.81;23.94
34205;BME280;20471;49.680;20.074;2023-05-11T11:20:04;97184.68;;;26.78;24.03
34205;BME280;20471;49.680;20.074;2023-05-11T11:25:12;97185.70;;;26.77;23.97
34205;BME280;20471;49.680;20.074;2023-05-11T11:30:27;97187.60;;;26.74;24.11
34205;BME280;20471;49.680;20.074;2023-05-11T11:38:18;97178.93;;;26.73;23.95
34205;BME280;20471;49.680;20.074;2023-05-11T11:40:50;97174.58;;;26.76;23.99
34205;BME280;20471;49.680;20.074;2023-05-11T11:43:24;97173.70;;;26.83;24.42
34205;BME280;20471;49.680;20.074;2023-05-11T11:45:57;97177.36;;;26.93;24.09
34205;BME280;20471;49.680;20.074;2023-05-11T11:48:29;97178.73;;;26.84;23.93
34205;BME280;20471;49.680;20.074;2023-05-11T11:56:03;97179.23;;;26.87;23.82
34205;BME280;20471;49.680;20.074;2023-05-11T12:01:15;97172.38;;;26.98;24.01
34205;BME280;20471;49.680;20.074;2023-05-11T12:03:45;97175.71;;;27.00;24.86
34205;BME280;20471;49.680;20.074;2023-05-11T12:06:14;97172.66;;;27.14;24.51
34205;BME280;20471;49.680;20.074;2023-05-11T12:08:47;97172.84;;;27.22;24.02
34205;BME280;20471;49.680;20.074;2023-05-11T12:11:16;97176.69;;;27.25;23.75
34205;BME280;20471;49.680;20.074;2023-05-11T12:13:44;97175.70;;;27.16;23.38
34205;BME280;20471;49.680;20.074;2023-05-11T12:16:15;97169.54;;;27.16;23.87
34205;BME280;20471;49.680;20.074;2023-05-11T12:18:55;97166.23;;;27.13;23.37
34205;BME280;20471;49.680;20.074;2023-05-11T12:21:25;97165.77;;;26.94;23.36
34205;BME280;20471;49.680;20.074;2023-05-11T12:23:56;97164.31;;;26.95;23.93
34205;BME280;20471;49.680;20.074;2023-05-11T12:26:25;97158.39;;;27.11;24.42
34205;BME280;20471;49.680;20.074;2023-05-11T12:29:13;97151.69;;;27.34;24.99
34205;BME280;20471;49.680;20.074;2023-05-11T12:31:43;97155.90;;;27.41;24.31
34205;BME280;20471;49.680;20.074;2023-05-11T12:34:19;97154.66;;;27.48;24.45
34205;BME280;20471;49.680;20.074;2023-05-11T12:36:51;97151.48;;;27.51;24.30
34205;BME280;20471;49.680;20.074;2023-05-11T12:39:25;97145.59;;;27.46;24.02
34205;BME280;20471;49.680;20.074;2023-05-11T12:41:54;97145.73;;;27.35;24.21
34205;BME280;20471;49.680;20.074;2023-05-11T12:44:24;97145.39;;;27.33;24.53
34205;BME280;20471;49.680;20.074;2023-05-11T12:46:53;97143.89;;;27.42;24.22
34205;BME280;20471;49.680;20.074;2023-05-11T12:49:23;97138.88;;;27.34;24.36
34205;BME280;20471;49.680;20.074;2023-05-11T12:52:01;97139.27;;;27.32;24.67
34205;BME280;20471;49.680;20.074;2023-05-11T12:54:38;97137.51;;;27.39;24.99
34205;BME280;20471;49.680;20.074;2023-05-11T12:57:20;97141.67;;;27.40;24.82
34205;BME280;20471;49.680;20.074;2023-05-11T12:59:48;97143.50;;;27.44;24.61
34205;BME280;20471;49.680;20.074;2023-05-11T13:02:31;97143.19;;;27.43;24.23
34205;BME280;20471;49.680;20.074;2023-05-11T13:05:09;97141.45;;;27.39;24.25
34205;BME280;20471;49.680;20.074;2023-05-11T13:07:38;97138.52;;;27.39;24.67
34205;BME280;20471;49.680;20.074;2023-05-11T13:10:07;97134.70;;;27.42;24.84
34205;BME280;20471;49.680;20.074;2023-05-11T13:12:50;97132.98;;;27.42;24.78
34205;BME280;20471;49.680;20.074;2023-05-11T13:15:20;97129.61;;;27.43;25.10
34205;BME280;20471;49.680;20.074;2023-05-11T13:18:00;97128.11;;;27.41;24.89
34205;BME280;20471;49.680;20.074;2023-05-11T13:20:30;97127.44;;;27.33;24.82
34205;BME280;20471;49.680;20.074;2023-05-11T13:23:08;97124.83;;;27.25;24.80
34205;BME280;20471;49.680;20.074;2023-05-11T13:28:16;97116.50;;;27.03;24.63
34205;BME280;20471;49.680;20.074;2023-05-11T13:30:45;97115.75;;;27.09;24.95
34205;BME280;20471;49.680;20.074;2023-05-11T13:33:13;97117.88;;;27.11;24.79
34205;BME280;20471;49.680;20.074;2023-05-11T13:35:42;97117.55;;;27.03;24.20
34205;BME280;20471;49.680;20.074;2023-05-11T13:38:11;97117.51;;;26.89;23.99
34205;BME280;20471;49.680;20.074;2023-05-11T13:40:40;97117.59;;;26.56;24.01
34205;BME280;20471;49.680;20.074;2023-05-11T13:43:08;97113.88;;;26.10;24.05
34205;BME280;20471;49.680;20.074;2023-05-11T13:45:36;97109.64;;;25.70;24.24
34205;BME280;20471;49.680;20.074;2023-05-11T13:48:06;97108.83;;;25.41;24.63
34205;BME280;20471;49.680;20.074;2023-05-11T13:50:35;97106.36;;;25.19;24.66
34205;BME280;20471;49.680;20.074;2023-05-11T13:53:03;97108.77;;;24.98;25.48
34205;BME280;20471;49.680;20.074;2023-05-11T13:55:31;97108.98;;;24.85;25.08